sensor_id;sensor_type;location;lat;lon;timestamp;P1;durP1;ratioP1;P2;durP2;ratioP2
28529;SDS011;15737;49.760;6.632;2023-02-28T00:02:15;0.20;;;0.20;;
28529;SDS011;15737;49.760;6.632;2023-02-28T00:04:42;0.10;;;0.10;;
28529;SDS011;15737;49.760;6.632;2023-02-28T00:07:08;2.10;;;0.30;;
28529;SDS011;15737;49.760;6.632;2023-02-28T00:09:34;0.33;;;0.20;;
28529;SDS011;15737;49.760;6.632;2023-02-28T00:11:59;0.20;;;0.20;;
28529;SDS011;15737;49.760;6.632;2023-02-28T00:14:29;0.43;;;0.43;;
28529;SDS011;15737;49.760;6.632;2023-02-28T00:16:55;0.87;;;0.50;;
28529;SDS011;15737;49.760;6.632;2023-02-28T00:19:20;0.73;;;0.30;;
28529;SDS011;15737;49.760;6.632;2023-02-28T00:21:46;0.30;;;0.30;;
28529;SDS011;15737;49.760;6.632;2023-02-28T00:24:11;0.20;;;0.20;;
28529;SDS011;15737;49.760;6.632;2023-02-28T00:26:37;0.67;;;0.50;;
28529;SDS011;15737;49.760;6.632;2023-02-28T00:29:02;0.30;;;0.30;;
28529;SDS011;15737;49.760;6.632;2023-02-28T00:31:28;0.30;;;0.30;;
28529;SDS011;15737;49.760;6.632;2023-02-28T00:33:53;0.37;;;0.37;;
28529;SDS011;15737;49.760;6.632;2023-02-28T00:36:19;0.30;;;0.30;;
28529;SDS011;15737;49.760;6.632;2023-02-28T00:38:44;0.20;;;0.20;;
28529;SDS011;15737;49.760;6.632;2023-02-28T00:41:10;0.20;;;0.20;;
28529;SDS011;15737;49.760;6.632;2023-02-28T00:43:36;0.30;;;0.30;;
28529;SDS011;15737;49.760;6.632;2023-02-28T00:46:03;1.17;;;0.67;;
28529;SDS011;15737;49.760;6.632;2023-02-28T00:48:29;0.67;;;0.60;;
28529;SDS011;15737;49.760;6.632;2023-02-28T00:50:55;0.20;;;0.20;;
28529;SDS011;15737;49.760;6.632;2023-02-28T00:53:20;1.13;;;0.63;;
28529;SDS011;15737;49.760;6.632;2023-02-28T00:55:46;5.73;;;0.40;;
28529;SDS011;15737;49.760;6.632;2023-02-28T00:58:13;0.23;;;0.23;;
28529;SDS011;15737;49.760;6.632;2023-02-28T01:00:38;5.70;;;0.50;;
28529;SDS011;15737;49.760;6.632;2023-02-28T01:03:04;0.33;;;0.33;;
28529;SDS011;15737;49.760;6.632;2023-02-28T01:05:29;0.30;;;0.30;;
28529;SDS011;15737;49.760;6.632;2023-02-28T01:07:55;0.10;;;0.10;;
28529;SDS011;15737;49.760;6.632;2023-02-28T01:10:20;0.20;;;0.20;;
28529;SDS011;15737;49.760;6.632;2023-02-28T01:12:46;0.10;;;0.10;;
28529;SDS011;15737;49.760;6.632;2023-02-28T01:15:11;0.33;;;0.33;;
28529;SDS011;15737;49.760;6.632;2023-02-28T01:17:37;0.33;;;0.33;;
28529;SDS011;15737;49.760;6.632;2023-02-28T01:20:03;0.13;;;0.13;;
28529;SDS011;15737;49.760;6.632;2023-02-28T01:22:29;0.77;;;0.77;;
28529;SDS011;15737;49.760;6.632;2023-02-28T01:24:54;0.40;;;0.40;;
28529;SDS011;15737;49.760;6.632;2023-02-28T01:27:20;0.40;;;0.27;;
28529;SDS011;15737;49.760;6.632;2023-02-28T01:29:46;0.30;;;0.30;;
28529;SDS011;15737;49.760;6.632;2023-02-28T01:32:11;0.40;;;0.30;;
28529;SDS011;15737;49.760;6.632;2023-02-28T01:34:37;0.50;;;0.50;;
28529;SDS011;15737;49.760;6.632;2023-02-28T01:37:02;0.10;;;0.10;;
28529;SDS011;15737;49.760;6.632;2023-02-28T01:39:28;0.30;;;0.30;;
28529;SDS011;15737;49.760;6.632;2023-02-28T01:41:54;0.30;;;0.30;;
28529;SDS011;15737;49.760;6.632;2023-02-28T01:47:35;0.20;;;0.20;;
28529;SDS011;15737;49.760;6.632;2023-02-28T01:50:05;0.67;;;0.67;;
28529;SDS011;15737;49.760;6.632;2023-02-28T01:52:35;4.40;;;0.30;;
28529;SDS011;15737;49.760;6.632;2023-02-28T01:55:02;0.53;;;0.47;;
28529;SDS011;15737;49.760;6.632;2023-02-28T01:57:32;0.20;;;0.20;;
28529;SDS011;15737;49.760;6.632;2023-02-28T02:00:07;0.43;;;0.27;;
28529;SDS011;15737;49.760;6.632;2023-02-28T02:02:35;0.43;;;0.43;;
28529;SDS011;15737;49.760;6.632;2023-02-28T02:05:07;6.93;;;0.43;;
28529;SDS011;15737;49.760;6.632;2023-02-28T02:07:35;1.13;;;0.60;;
28529;SDS011;15737;49.760;6.632;2023-02-28T02:10:05;0.10;;;0.10;;
28529;SDS011;15737;49.760;6.632;2023-02-28T02:15:11;6.43;;;0.53;;
28529;SDS011;15737;49.760;6.632;2023-02-28T02:17:56;1.03;;;0.47;;
28529;SDS011;15737;49.760;6.632;2023-02-28T02:31:45;0.40;;;0.40;;
28529;SDS011;15737;49.760;6.632;2023-02-28T02:37:27;1.13;;;0.60;;
28529;SDS011;15737;49.760;6.632;2023-02-28T02:40:25;0.20;;;0.20;;
28529;SDS011;15737;49.760;6.632;2023-02-28T02:43:09;0.40;;;0.30;;
28529;SDS011;15737;49.760;6.632;2023-02-28T02:45:44;0.13;;;0.13;;
28529;SDS011;15737;49.760;6.632;2023-02-28T02:48:13;0.77;;;0.27;;
28529;SDS011;15737;49.760;6.632;2023-02-28T02:50:57;2.27;;;0.60;;
28529;SDS011;15737;49.760;6.632;2023-02-28T02:53:30;0.30;;;0.30;;
28529;SDS011;15737;49.760;6.632;2023-02-28T02:56:00;0.33;;;0.30;;
28529;SDS011;15737;49.760;6.632;2023-02-28T02:58:31;0.53;;;0.53;;
28529;SDS011;15737;49.760;6.632;2023-02-28T03:01:00;0.33;;;0.33;;
28529;SDS011;15737;49.760;6.632;2023-02-28T03:03:28;0.87;;;0.60;;
28529;SDS011;15737;49.760;6.632;2023-02-28T03:05:59;0.30;;;0.30;;
28529;SDS011;15737;49.760;6.632;2023-02-28T03:08:26;0.97;;;0.97;;
28529;SDS011;15737;49.760;6.632;2023-02-28T03:10:57;0.30;;;0.30;;
28529;SDS011;15737;49.760;6.632;2023-02-28T03:19:39;0.13;;;0.13;;
28529;SDS011;15737;49.760;6.632;2023-02-28T03:33:21;0.40;;;0.40;;
28529;SDS011;15737;49.760;6.632;2023-02-28T03:35:53;0.53;;;0.37;;
28529;SDS011;15737;49.760;6.632;2023-02-28T03:41:30;0.10;;;0.10;;
28529;SDS011;15737;49.760;6.632;2023-02-28T03:44:04;0.67;;;0.30;;
28529;SDS011;15737;49.760;6.632;2023-02-28T03:46:35;1.40;;;1.13;;
28529;SDS011;15737;49.760;6.632;2023-02-28T03:49:12;0.30;;;0.20;;
28529;SDS011;15737;49.760;6.632;2023-02-28T03:51:45;0.27;;;0.27;;
28529;SDS011;15737;49.760;6.632;2023-02-28T03:54:13;0.77;;;0.57;;
28529;SDS011;15737;49.760;6.632;2023-02-28T03:56:43;0.30;;;0.30;;
28529;SDS011;15737;49.760;6.632;2023-02-28T03:59:19;0.30;;;0.30;;
28529;SDS011;15737;49.760;6.632;2023-02-28T04:02:01;0.83;;;0.57;;
28529;SDS011;15737;49.760;6.632;2023-02-28T04:04:27;1.90;;;0.93;;
28529;SDS011;15737;49.760;6.632;2023-02-28T04:06:53;0.20;;;0.20;;
28529;SDS011;15737;49.760;6.632;2023-02-28T04:09:27;0.20;;;0.20;;
28529;SDS011;15737;49.760;6.632;2023-02-28T04:11:53;0.40;;;0.40;;
28529;SDS011;15737;49.760;6.632;2023-02-28T04:14:20;0.67;;;0.60;;
28529;SDS011;15737;49.760;6.632;2023-02-28T04:16:46;0.43;;;0.43;;
28529;SDS011;15737;49.760;6.632;2023-02-28T04:19:12;1.73;;;1.00;;
28529;SDS011;15737;49.760;6.632;2023-02-28T04:21:43;0.60;;;0.57;;
28529;SDS011;15737;49.760;6.632;2023-02-28T04:24:11;1.90;;;0.63;;
28529;SDS011;15737;49.760;6.632;2023-02-28T04:26:42;2.23;;;1.20;;
28529;SDS011;15737;49.760;6.632;2023-02-28T04:29:10;0.50;;;0.43;;
28529;SDS011;15737;49.760;6.632;2023-02-28T04:31:36;0.60;;;0.60;;
28529;SDS011;15737;49.760;6.632;2023-02-28T04:34:02;0.33;;;0.33;;
28529;SDS011;15737;49.760;6.632;2023-02-28T04:36:28;1.20;;;0.80;;
28529;SDS011;15737;49.760;6.632;2023-02-28T04:38:54;0.70;;;0.70;;
28529;SDS011;15737;49.760;6.632;2023-02-28T04:41:20;3.30;;;0.73;;
28529;SDS011;15737;49.760;6.632;2023-02-28T04:43:46;2.23;;;0.67;;
28529;SDS011;15737;49.760;6.632;2023-02-28T04:46:12;1.90;;;1.37;;
28529;SDS011;15737;49.760;6.632;2023-02-28T04:48:38;1.40;;;1.13;;
28529;SDS011;15737;49.760;6.632;2023-02-28T04:51:09;0.80;;;0.80;;
28529;SDS011;15737;49.760;6.632;2023-02-28T04:53:37;1.50;;;1.40;;
28529;SDS011;15737;49.760;6.632;2023-02-28T04:56:04;1.13;;;0.80;;
28529;SDS011;15737;49.760;6.632;2023-02-28T04:58:31;1.13;;;0.60;;
28529;SDS011;15737;49.760;6.632;2023-02-28T05:01:07;2.23;;;0.77;;
28529;SDS011;15737;49.760;6.632;2023-02-28T05:03:42;1.60;;;1.33;;
28529;SDS011;15737;49.760;6.632;2023-02-28T05:06:09;1.00;;;0.87;;
28529;SDS011;15737;49.760;6.632;2023-02-28T05:08:36;1.27;;;1.17;;
28529;SDS011;15737;49.760;6.632;2023-02-28T05:11:02;1.83;;;1.30;;
28529;SDS011;15737;49.760;6.632;2023-02-28T05:13:30;0.47;;;0.43;;
28529;SDS011;15737;49.760;6.632;2023-02-28T05:15:56;2.17;;;0.80;;
28529;SDS011;15737;49.760;6.632;2023-02-28T05:18:21;2.10;;;1.13;;
28529;SDS011;15737;49.760;6.632;2023-02-28T05:20:47;0.80;;;0.77;;
28529;SDS011;15737;49.760;6.632;2023-02-28T05:23:13;2.80;;;0.80;;
28529;SDS011;15737;49.760;6.632;2023-02-28T05:25:39;0.70;;;0.70;;
28529;SDS011;15737;49.760;6.632;2023-02-28T05:28:05;1.03;;;0.80;;
28529;SDS011;15737;49.760;6.632;2023-02-28T05:30:31;2.00;;;1.30;;
28529;SDS011;15737;49.760;6.632;2023-02-28T05:32:57;1.17;;;1.07;;
28529;SDS011;15737;49.760;6.632;2023-02-28T05:35:23;2.47;;;1.93;;
28529;SDS011;15737;49.760;6.632;2023-02-28T05:37:49;0.80;;;0.80;;
28529;SDS011;15737;49.760;6.632;2023-02-28T05:40:15;0.87;;;0.87;;
28529;SDS011;15737;49.760;6.632;2023-02-28T05:42:41;0.73;;;0.73;;
28529;SDS011;15737;49.760;6.632;2023-02-28T05:45:07;2.77;;;0.97;;
28529;SDS011;15737;49.760;6.632;2023-02-28T05:47:33;0.97;;;0.83;;
28529;SDS011;15737;49.760;6.632;2023-02-28T05:49:59;0.60;;;0.60;;
28529;SDS011;15737;49.760;6.632;2023-02-28T05:52:25;0.70;;;0.70;;
28529;SDS011;15737;49.760;6.632;2023-02-28T05:54:51;1.10;;;1.00;;
28529;SDS011;15737;49.760;6.632;2023-02-28T05:57:17;1.00;;;0.90;;
28529;SDS011;15737;49.760;6.632;2023-02-28T05:59:42;2.10;;;1.80;;
28529;SDS011;15737;49.760;6.632;2023-02-28T06:02:12;1.37;;;1.20;;
28529;SDS011;15737;49.760;6.632;2023-02-28T06:04:39;0.97;;;0.70;;
28529;SDS011;15737;49.760;6.632;2023-02-28T06:07:06;1.43;;;1.23;;
28529;SDS011;15737;49.760;6.632;2023-02-28T06:09:32;0.67;;;0.67;;
28529;SDS011;15737;49.760;6.632;2023-02-28T06:12:01;0.67;;;0.40;;
28529;SDS011;15737;49.760;6.632;2023-02-28T06:14:28;1.70;;;1.23;;
28529;SDS011;15737;49.760;6.632;2023-02-28T06:16:56;1.30;;;1.20;;
28529;SDS011;15737;49.760;6.632;2023-02-28T06:19:22;0.60;;;0.60;;
28529;SDS011;15737;49.760;6.632;2023-02-28T06:21:50;1.93;;;1.20;;
28529;SDS011;15737;49.760;6.632;2023-02-28T06:24:17;1.53;;;1.00;;
28529;SDS011;15737;49.760;6.632;2023-02-28T06:26:44;6.83;;;1.17;;
28529;SDS011;15737;49.760;6.632;2023-02-28T06:29:17;3.00;;;1.80;;
28529;SDS011;15737;49.760;6.632;2023-02-28T06:31:46;0.93;;;0.93;;
28529;SDS011;15737;49.760;6.632;2023-02-28T06:34:12;1.57;;;0.97;;
28529;SDS011;15737;49.760;6.632;2023-02-28T06:36:39;1.57;;;1.43;;
28529;SDS011;15737;49.760;6.632;2023-02-28T06:39:05;3.03;;;0.80;;
28529;SDS011;15737;49.760;6.632;2023-02-28T06:41:31;0.90;;;0.90;;
28529;SDS011;15737;49.760;6.632;2023-02-28T06:43:56;0.63;;;0.63;;
28529;SDS011;15737;49.760;6.632;2023-02-28T06:46:22;1.03;;;0.63;;
28529;SDS011;15737;49.760;6.632;2023-02-28T06:48:48;0.97;;;0.83;;
28529;SDS011;15737;49.760;6.632;2023-02-28T06:51:15;1.70;;;1.53;;
28529;SDS011;15737;49.760;6.632;2023-02-28T06:53:43;1.50;;;1.03;;
28529;SDS011;15737;49.760;6.632;2023-02-28T06:56:10;0.70;;;0.70;;
28529;SDS011;15737;49.760;6.632;2023-02-28T06:58:37;1.43;;;1.07;;
28529;SDS011;15737;49.760;6.632;2023-02-28T07:01:04;1.90;;;1.30;;
28529;SDS011;15737;49.760;6.632;2023-02-28T07:03:30;3.00;;;1.90;;
28529;SDS011;15737;49.760;6.632;2023-02-28T07:05:56;1.67;;;0.73;;
28529;SDS011;15737;49.760;6.632;2023-02-28T07:08:22;2.17;;;1.77;;
28529;SDS011;15737;49.760;6.632;2023-02-28T07:10:51;3.03;;;1.83;;
28529;SDS011;15737;49.760;6.632;2023-02-28T07:13:18;1.50;;;1.40;;
28529;SDS011;15737;49.760;6.632;2023-02-28T07:15:43;1.23;;;1.03;;
28529;SDS011;15737;49.760;6.632;2023-02-28T07:18:09;3.27;;;1.43;;
28529;SDS011;15737;49.760;6.632;2023-02-28T07:20:35;1.50;;;0.90;;
28529;SDS011;15737;49.760;6.632;2023-02-28T07:23:01;1.93;;;1.60;;
28529;SDS011;15737;49.760;6.632;2023-02-28T07:25:27;3.37;;;1.87;;
28529;SDS011;15737;49.760;6.632;2023-02-28T07:27:54;1.80;;;1.70;;
28529;SDS011;15737;49.760;6.632;2023-02-28T07:30:20;2.00;;;1.37;;
28529;SDS011;15737;49.760;6.632;2023-02-28T07:32:46;2.47;;;1.67;;
28529;SDS011;15737;49.760;6.632;2023-02-28T07:35:12;1.67;;;1.53;;
28529;SDS011;15737;49.760;6.632;2023-02-28T07:37:40;3.00;;;1.70;;
28529;SDS011;15737;49.760;6.632;2023-02-28T07:40:06;2.80;;;1.83;;
28529;SDS011;15737;49.760;6.632;2023-02-28T07:42:36;1.67;;;1.40;;
28529;SDS011;15737;49.760;6.632;2023-02-28T07:45:02;1.40;;;1.30;;
28529;SDS011;15737;49.760;6.632;2023-02-28T07:47:29;2.47;;;1.87;;
28529;SDS011;15737;49.760;6.632;2023-02-28T07:49:55;1.83;;;1.73;;
28529;SDS011;15737;49.760;6.632;2023-02-28T07:52:21;3.73;;;2.07;;
28529;SDS011;15737;49.760;6.632;2023-02-28T07:54:48;2.33;;;2.23;;
28529;SDS011;15737;49.760;6.632;2023-02-28T07:57:14;1.90;;;1.80;;
28529;SDS011;15737;49.760;6.632;2023-02-28T07:59:39;1.60;;;1.50;;
28529;SDS011;15737;49.760;6.632;2023-02-28T08:02:05;4.00;;;2.07;;
28529;SDS011;15737;49.760;6.632;2023-02-28T08:04:34;2.73;;;2.10;;
28529;SDS011;15737;49.760;6.632;2023-02-28T08:07:00;3.33;;;1.90;;
28529;SDS011;15737;49.760;6.632;2023-02-28T08:09:25;2.10;;;1.63;;
28529;SDS011;15737;49.760;6.632;2023-02-28T08:11:51;2.20;;;2.00;;
28529;SDS011;15737;49.760;6.632;2023-02-28T08:14:17;3.07;;;2.87;;
28529;SDS011;15737;49.760;6.632;2023-02-28T08:17:04;5.77;;;4.03;;
28529;SDS011;15737;49.760;6.632;2023-02-28T08:21:57;17.83;;;16.83;;
28529;SDS011;15737;49.760;6.632;2023-02-28T08:24:23;15.63;;;14.83;;
28529;SDS011;15737;49.760;6.632;2023-02-28T08:26:49;17.83;;;17.03;;
28529;SDS011;15737;49.760;6.632;2023-02-28T08:29:15;21.00;;;19.90;;
28529;SDS011;15737;49.760;6.632;2023-02-28T08:32:04;20.77;;;19.73;;
28529;SDS011;15737;49.760;6.632;2023-02-28T08:34:32;28.07;;;26.77;;
28529;SDS011;15737;49.760;6.632;2023-02-28T08:36:58;16.83;;;16.03;;
28529;SDS011;15737;49.760;6.632;2023-02-28T08:39:23;24.67;;;23.37;;
28529;SDS011;15737;49.760;6.632;2023-02-28T08:41:49;17.60;;;16.73;;
28529;SDS011;15737;49.760;6.632;2023-02-28T08:44:14;20.73;;;19.67;;
28529;SDS011;15737;49.760;6.632;2023-02-28T08:46:53;18.77;;;17.93;;
28529;SDS011;15737;49.760;6.632;2023-02-28T08:49:19;21.87;;;20.87;;
28529;SDS011;15737;49.760;6.632;2023-02-28T08:51:44;20.83;;;19.83;;
28529;SDS011;15737;49.760;6.632;2023-02-28T08:54:13;15.13;;;14.43;;
28529;SDS011;15737;49.760;6.632;2023-02-28T08:56:40;19.23;;;18.33;;
28529;SDS011;15737;49.760;6.632;2023-02-28T08:59:08;7.73;;;7.33;;
28529;SDS011;15737;49.760;6.632;2023-02-28T09:01:51;13.47;;;12.50;;
28529;SDS011;15737;49.760;6.632;2023-02-28T09:04:17;13.47;;;12.77;;
28529;SDS011;15737;49.760;6.632;2023-02-28T09:06:42;12.47;;;11.87;;
28529;SDS011;15737;49.760;6.632;2023-02-28T09:09:09;12.83;;;12.13;;
28529;SDS011;15737;49.760;6.632;2023-02-28T09:11:34;13.13;;;12.53;;
28529;SDS011;15737;49.760;6.632;2023-02-28T09:14:01;9.47;;;9.07;;
28529;SDS011;15737;49.760;6.632;2023-02-28T09:16:28;9.60;;;9.10;;
28529;SDS011;15737;49.760;6.632;2023-02-28T09:18:54;7.27;;;6.97;;
28529;SDS011;15737;49.760;6.632;2023-02-28T09:21:20;9.27;;;8.37;;
28529;SDS011;15737;49.760;6.632;2023-02-28T09:23:46;6.30;;;6.00;;
28529;SDS011;15737;49.760;6.632;2023-02-28T09:26:18;3.67;;;3.50;;
28529;SDS011;15737;49.760;6.632;2023-02-28T09:28:51;4.20;;;4.00;;
28529;SDS011;15737;49.760;6.632;2023-02-28T09:31:20;5.53;;;5.13;;
28529;SDS011;15737;49.760;6.632;2023-02-28T09:33:48;9.90;;;9.33;;
28529;SDS011;15737;49.760;6.632;2023-02-28T09:36:15;4.80;;;4.60;;
28529;SDS011;15737;49.760;6.632;2023-02-28T09:38:41;4.47;;;4.17;;
28529;SDS011;15737;49.760;6.632;2023-02-28T09:41:27;4.57;;;4.43;;
28529;SDS011;15737;49.760;6.632;2023-02-28T09:44:12;4.93;;;4.63;;
28529;SDS011;15737;49.760;6.632;2023-02-28T09:46:46;4.93;;;4.57;;
28529;SDS011;15737;49.760;6.632;2023-02-28T09:49:16;5.78;;;5.57;;
28529;SDS011;15737;49.760;6.632;2023-02-28T09:54:24;6.17;;;5.87;;
28529;SDS011;15737;49.760;6.632;2023-02-28T10:02:15;3.73;;;3.57;;
28529;SDS011;15737;49.760;6.632;2023-02-28T10:04:47;6.33;;;6.03;;
28529;SDS011;15737;49.760;6.632;2023-02-28T10:13:05;21.60;;;20.47;;
28529;SDS011;15737;49.760;6.632;2023-02-28T10:15:39;8.10;;;7.77;;
28529;SDS011;15737;49.760;6.632;2023-02-28T10:18:09;22.40;;;21.30;;
28529;SDS011;15737;49.760;6.632;2023-02-28T10:20:39;6.80;;;6.40;;
28529;SDS011;15737;49.760;6.632;2023-02-28T10:23:23;19.37;;;18.43;;
28529;SDS011;15737;49.760;6.632;2023-02-28T10:28:31;10.27;;;9.77;;
28529;SDS011;15737;49.760;6.632;2023-02-28T10:30:57;10.20;;;9.60;;
28529;SDS011;15737;49.760;6.632;2023-02-28T10:33:24;8.43;;;7.93;;
28529;SDS011;15737;49.760;6.632;2023-02-28T10:35:54;8.37;;;7.97;;
28529;SDS011;15737;49.760;6.632;2023-02-28T10:38:24;15.33;;;14.63;;
28529;SDS011;15737;49.760;6.632;2023-02-28T10:41:05;10.70;;;10.10;;
28529;SDS011;15737;49.760;6.632;2023-02-28T10:43:33;10.10;;;9.60;;
28529;SDS011;15737;49.760;6.632;2023-02-28T10:46:01;9.20;;;8.70;;
28529;SDS011;15737;49.760;6.632;2023-02-28T10:48:34;7.27;;;6.87;;
28529;SDS011;15737;49.760;6.632;2023-02-28T10:51:02;6.83;;;6.43;;
28529;SDS011;15737;49.760;6.632;2023-02-28T10:53:33;7.37;;;6.97;;
28529;SDS011;15737;49.760;6.632;2023-02-28T10:58:47;3.13;;;2.93;;
28529;SDS011;15737;49.760;6.632;2023-02-28T11:01:35;8.60;;;8.20;;
28529;SDS011;15737;49.760;6.632;2023-02-28T11:07:01;3.13;;;1.70;;
28529;SDS011;15737;49.760;6.632;2023-02-28T11:09:33;1.87;;;1.77;;
28529;SDS011;15737;49.760;6.632;2023-02-28T11:12:00;1.83;;;1.70;;
28529;SDS011;15737;49.760;6.632;2023-02-28T11:14:30;4.47;;;2.10;;
28529;SDS011;15737;49.760;6.632;2023-02-28T11:17:00;1.97;;;1.80;;
28529;SDS011;15737;49.760;6.632;2023-02-28T11:19:40;2.73;;;1.53;;
28529;SDS011;15737;49.760;6.632;2023-02-28T11:22:28;1.97;;;1.87;;
28529;SDS011;15737;49.760;6.632;2023-02-28T11:24:58;1.37;;;1.27;;
28529;SDS011;15737;49.760;6.632;2023-02-28T11:29:55;3.27;;;2.30;;
28529;SDS011;15737;49.760;6.632;2023-02-28T11:32:22;2.57;;;1.90;;
28529;SDS011;15737;49.760;6.632;2023-02-28T11:37:34;3.50;;;1.90;;
28529;SDS011;15737;49.760;6.632;2023-02-28T11:40:00;2.83;;;2.10;;
28529;SDS011;15737;49.760;6.632;2023-02-28T11:42:50;2.70;;;2.50;;
28529;SDS011;15737;49.760;6.632;2023-02-28T11:45:41;2.87;;;2.33;;
28529;SDS011;15737;49.760;6.632;2023-02-28T11:50:59;3.20;;;2.20;;
28529;SDS011;15737;49.760;6.632;2023-02-28T11:56:32;2.80;;;1.90;;
28529;SDS011;15737;49.760;6.632;2023-02-28T11:59:13;1.60;;;1.50;;
28529;SDS011;15737;49.760;6.632;2023-02-28T12:02:00;2.80;;;1.70;;
28529;SDS011;15737;49.760;6.632;2023-02-28T12:04:55;1.97;;;1.60;;
28529;SDS011;15737;49.760;6.632;2023-02-28T12:10:31;2.10;;;1.90;;
28529;SDS011;15737;49.760;6.632;2023-02-28T12:13:44;2.27;;;1.83;;
28529;SDS011;15737;49.760;6.632;2023-02-28T12:22:15;2.10;;;2.00;;
28529;SDS011;15737;49.760;6.632;2023-02-28T12:25:19;5.67;;;5.27;;
28529;SDS011;15737;49.760;6.632;2023-02-28T12:27:51;3.40;;;2.20;;
28529;SDS011;15737;49.760;6.632;2023-02-28T12:30:27;4.23;;;2.33;;
28529;SDS011;15737;49.760;6.632;2023-02-28T12:32:56;2.00;;;1.90;;
28529;SDS011;15737;49.760;6.632;2023-02-28T12:35:33;2.90;;;2.70;;
28529;SDS011;15737;49.760;6.632;2023-02-28T12:38:06;1.93;;;1.83;;
28529;SDS011;15737;49.760;6.632;2023-02-28T12:40:49;5.23;;;2.30;;
28529;SDS011;15737;49.760;6.632;2023-02-28T12:43:29;2.37;;;1.97;;
28529;SDS011;15737;49.760;6.632;2023-02-28T12:46:02;5.20;;;2.40;;
28529;SDS011;15737;49.760;6.632;2023-02-28T12:51:01;2.10;;;2.00;;
28529;SDS011;15737;49.760;6.632;2023-02-28T12:53:44;1.70;;;1.60;;
28529;SDS011;15737;49.760;6.632;2023-02-28T12:56:29;1.83;;;1.73;;
28529;SDS011;15737;49.760;6.632;2023-02-28T12:59:10;2.60;;;2.40;;
28529;SDS011;15737;49.760;6.632;2023-02-28T13:10:17;2.83;;;2.00;;
28529;SDS011;15737;49.760;6.632;2023-02-28T13:13:02;2.40;;;2.00;;
28529;SDS011;15737;49.760;6.632;2023-02-28T13:15:29;3.17;;;2.23;;
28529;SDS011;15737;49.760;6.632;2023-02-28T13:17:55;2.03;;;1.93;;
28529;SDS011;15737;49.760;6.632;2023-02-28T13:20:24;4.03;;;2.40;;
28529;SDS011;15737;49.760;6.632;2023-02-28T13:22:52;2.23;;;1.80;;
28529;SDS011;15737;49.760;6.632;2023-02-28T13:27:50;4.23;;;2.27;;
28529;SDS011;15737;49.760;6.632;2023-02-28T13:35:44;4.67;;;2.00;;
28529;SDS011;15737;49.760;6.632;2023-02-28T13:38:22;1.83;;;1.73;;
28529;SDS011;15737;49.760;6.632;2023-02-28T13:41:35;3.00;;;2.03;;
28529;SDS011;15737;49.760;6.632;2023-02-28T13:44:00;3.60;;;2.30;;
28529;SDS011;15737;49.760;6.632;2023-02-28T13:54:49;2.00;;;1.80;;
28529;SDS011;15737;49.760;6.632;2023-02-28T14:03:10;2.60;;;1.87;;
28529;SDS011;15737;49.760;6.632;2023-02-28T14:05:46;5.20;;;2.83;;
28529;SDS011;15737;49.760;6.632;2023-02-28T14:08:16;4.23;;;2.17;;
28529;SDS011;15737;49.760;6.632;2023-02-28T14:10:46;3.23;;;2.33;;
28529;SDS011;15737;49.760;6.632;2023-02-28T14:16:16;2.37;;;2.13;;
28529;SDS011;15737;49.760;6.632;2023-02-28T14:18:55;2.53;;;1.80;;
28529;SDS011;15737;49.760;6.632;2023-02-28T14:30:03;2.37;;;2.00;;
28529;SDS011;15737;49.760;6.632;2023-02-28T14:38:46;2.83;;;2.20;;
28529;SDS011;15737;49.760;6.632;2023-02-28T14:41:20;2.60;;;2.20;;
28529;SDS011;15737;49.760;6.632;2023-02-28T14:43:54;2.93;;;2.50;;
28529;SDS011;15737;49.760;6.632;2023-02-28T14:46:22;3.93;;;2.60;;
28529;SDS011;15737;49.760;6.632;2023-02-28T14:48:55;4.13;;;2.50;;
28529;SDS011;15737;49.760;6.632;2023-02-28T14:51:21;3.50;;;2.10;;
28529;SDS011;15737;49.760;6.632;2023-02-28T14:53:49;2.60;;;1.87;;
28529;SDS011;15737;49.760;6.632;2023-02-28T14:56:38;2.80;;;2.10;;
28529;SDS011;15737;49.760;6.632;2023-02-28T14:59:04;2.50;;;2.30;;
28529;SDS011;15737;49.760;6.632;2023-02-28T15:01:31;2.50;;;2.30;;
28529;SDS011;15737;49.760;6.632;2023-02-28T15:04:03;2.20;;;2.00;;
28529;SDS011;15737;49.760;6.632;2023-02-28T15:06:31;2.30;;;2.20;;
28529;SDS011;15737;49.760;6.632;2023-02-28T15:09:07;2.93;;;2.40;;
28529;SDS011;15737;49.760;6.632;2023-02-28T15:11:34;3.63;;;2.03;;
28529;SDS011;15737;49.760;6.632;2023-02-28T15:14:01;6.03;;;2.40;;
28529;SDS011;15737;49.760;6.632;2023-02-28T15:16:29;2.90;;;2.23;;
28529;SDS011;15737;49.760;6.632;2023-02-28T15:19:07;2.70;;;2.30;;
28529;SDS011;15737;49.760;6.632;2023-02-28T15:21:42;3.60;;;2.30;;
28529;SDS011;15737;49.760;6.632;2023-02-28T15:24:13;2.93;;;2.70;;
28529;SDS011;15737;49.760;6.632;2023-02-28T15:26:49;3.43;;;2.70;;
28529;SDS011;15737;49.760;6.632;2023-02-28T15:29:20;3.07;;;2.23;;
28529;SDS011;15737;49.760;6.632;2023-02-28T15:32:16;3.27;;;2.10;;
28529;SDS011;15737;49.760;6.632;2023-02-28T15:34:44;2.00;;;1.90;;
28529;SDS011;15737;49.760;6.632;2023-02-28T15:37:27;2.20;;;2.00;;
28529;SDS011;15737;49.760;6.632;2023-02-28T15:39:55;2.17;;;1.97;;
28529;SDS011;15737;49.760;6.632;2023-02-28T15:42:23;2.23;;;1.80;;
28529;SDS011;15737;49.760;6.632;2023-02-28T15:44:54;2.10;;;1.90;;
28529;SDS011;15737;49.760;6.632;2023-02-28T15:47:24;2.60;;;2.30;;
28529;SDS011;15737;49.760;6.632;2023-02-28T15:52:33;2.87;;;2.17;;
28529;SDS011;15737;49.760;6.632;2023-02-28T15:57:47;2.13;;;1.93;;
28529;SDS011;15737;49.760;6.632;2023-02-28T16:00:18;1.93;;;1.37;;
28529;SDS011;15737;49.760;6.632;2023-02-28T16:02:46;2.10;;;1.90;;
28529;SDS011;15737;49.760;6.632;2023-02-28T16:07:38;2.17;;;1.97;;
28529;SDS011;15737;49.760;6.632;2023-02-28T16:10:05;2.87;;;2.17;;
28529;SDS011;15737;49.760;6.632;2023-02-28T16:12:36;2.47;;;1.93;;
28529;SDS011;15737;49.760;6.632;2023-02-28T16:15:06;2.73;;;1.70;;
28529;SDS011;15737;49.760;6.632;2023-02-28T16:17:35;2.07;;;1.70;;
28529;SDS011;15737;49.760;6.632;2023-02-28T16:22:38;2.43;;;1.93;;
28529;SDS011;15737;49.760;6.632;2023-02-28T16:25:04;2.60;;;2.10;;
28529;SDS011;15737;49.760;6.632;2023-02-28T16:27:35;2.60;;;2.07;;
28529;SDS011;15737;49.760;6.632;2023-02-28T16:30:02;2.80;;;1.67;;
28529;SDS011;15737;49.760;6.632;2023-02-28T16:32:29;2.33;;;1.40;;
28529;SDS011;15737;49.760;6.632;2023-02-28T16:34:56;3.13;;;2.37;;
28529;SDS011;15737;49.760;6.632;2023-02-28T16:37:22;2.77;;;1.93;;
28529;SDS011;15737;49.760;6.632;2023-02-28T16:39:51;3.10;;;2.00;;
28529;SDS011;15737;49.760;6.632;2023-02-28T16:42:21;3.33;;;1.80;;
28529;SDS011;15737;49.760;6.632;2023-02-28T16:44:50;2.47;;;1.70;;
28529;SDS011;15737;49.760;6.632;2023-02-28T16:47:16;2.70;;;1.60;;
28529;SDS011;15737;49.760;6.632;2023-02-28T16:49:42;2.90;;;2.13;;
28529;SDS011;15737;49.760;6.632;2023-02-28T16:52:08;2.57;;;1.77;;
28529;SDS011;15737;49.760;6.632;2023-02-28T16:54:35;2.53;;;2.03;;
28529;SDS011;15737;49.760;6.632;2023-02-28T16:57:00;2.83;;;2.00;;
28529;SDS011;15737;49.760;6.632;2023-02-28T16:59:26;3.17;;;1.97;;
28529;SDS011;15737;49.760;6.632;2023-02-28T17:01:54;2.50;;;1.97;;
28529;SDS011;15737;49.760;6.632;2023-02-28T17:04:22;2.63;;;1.87;;
28529;SDS011;15737;49.760;6.632;2023-02-28T17:06:48;3.27;;;2.40;;
28529;SDS011;15737;49.760;6.632;2023-02-28T17:09:16;3.30;;;1.70;;
28529;SDS011;15737;49.760;6.632;2023-02-28T17:11:44;2.10;;;1.67;;
28529;SDS011;15737;49.760;6.632;2023-02-28T17:14:10;2.97;;;1.63;;
28529;SDS011;15737;49.760;6.632;2023-02-28T17:16:36;1.97;;;1.67;;
28529;SDS011;15737;49.760;6.632;2023-02-28T17:19:05;2.57;;;1.70;;
28529;SDS011;15737;49.760;6.632;2023-02-28T17:21:32;1.33;;;1.23;;
28529;SDS011;15737;49.760;6.632;2023-02-28T17:23:59;2.90;;;2.13;;
28529;SDS011;15737;49.760;6.632;2023-02-28T17:26:25;3.00;;;1.77;;
28529;SDS011;15737;49.760;6.632;2023-02-28T17:28:51;2.57;;;1.67;;